• Join FlightAware (Why Join?)
  • Login
  • US Flag 
05:41PM EDT


 

Airport Tracker/Info


-or-


 

Live Flight TrackerFlight Track Log ✈ N777NC ✈ 07-Jul-2013 ✈ KATL - KORD

Flight Track Log - Related Links

Times and Time Zones

All times are in EDT time to prevent confusion due to time zone crossing. See the N777NC flight status page for this flight to view local times or setup timezone preferences in your user account.

Time Position Orientation Groundspeed Altitude Reporting Facility
EDT Latitude Longitude Course Direction KTS MPH feet Rate Location/Type
07:32AM 33.6500 -84.4000 349° North 165 190 2,200  Level Atlanta TRACON
07:33AM 33.6667 -84.3333 73° East 245 282 3,300 1,740 Climbing Atlanta TRACON
07:34AM 33.9982 -84.5132 349° North  Level FlightAware Approximate
07:34AM 33.7981 -84.2939 14° North 254 292 7,300  Level Atlanta Center
07:35AM 34.1134 -84.5419 347° North  Level FlightAware Approximate
07:35AM 33.8689 -84.3489 327° Northwest 303 349 9,600  Level Atlanta Center
07:36AM 34.2332 -84.5742 349° North  Level FlightAware Approximate
07:36AM 33.9397 -84.4044 327° Northwest 303 349 11,800  Level Atlanta Center
07:37AM 34.3539 -84.6015 349° North  Level FlightAware Approximate
07:37AM 34.0294 -84.4500 337° Northwest 316 364 12,700  Level Atlanta Center
07:38AM 34.1336 -84.4781 347° North 360 414 14,200 1,440 Climbing Atlanta Center
07:39AM 34.2464 -84.5061 348° North 394 453 15,600 1,560 Climbing Atlanta Center
07:40AM 34.3650 -84.5394 347° North 418 481 17,400 2,400 Climbing Atlanta Center
07:41AM 34.4797 -84.5681 348° North 422 486 20,500 2,160 Climbing Atlanta Center
07:42AM 34.5881 -84.6089 343° North 412 474 21,800 1,200 Climbing Atlanta Center
07:43AM 34.6839 -84.6425 344° North 412 474 23,000 1,080 Climbing Atlanta Center
07:44AM 34.8028 -84.6764 347° North 412 474 24,000 960 Climbing Atlanta Center
07:45AM 34.9214 -84.7150 345° North 423 487 25,000 840 Climbing Atlanta Center
07:46AM 35.0444 -84.7492 347° North 435 501 25,700 720 Climbing Atlanta Center
07:47AM 35.1694 -84.7806 348° North 451 519 26,500 780 Climbing Atlanta Center
07:48AM 35.2944 -84.8200 346° North 451 519 27,300 720 Climbing Atlanta Center
07:49AM 35.4192 -84.8644 344° North 456 525 28,000 480 Climbing Atlanta Center
07:50AM 35.5461 -84.9067 345° North 461 531 28,300 480 Climbing Atlanta Center
07:51AM 35.6772 -84.9592 342° North 472 543 29,000 660 Climbing Atlanta Center
07:54AM 36.0058 -85.0892 342° North 504 580 30,700 780 Climbing Indianapolis Center
07:55AM 36.1406 -85.1333 345° North 498 573 31,700 840 Climbing Indianapolis Center
07:56AM 36.2781 -85.1714 347° North 502 578 32,500 780 Climbing Indianapolis Center
07:57AM 36.4175 -85.1917 353° North 503 579 33,400 720 Climbing Indianapolis Center
07:58AM 36.5572 -85.2167 352° North 504 580 34,000 240 Climbing Indianapolis Center
07:59AM 36.6983 -85.2364 354° North 510 587 34,000  Level Indianapolis Center
08:00AM 36.8403 -85.2628 352° North 513 590 34,000  Level Indianapolis Center
08:01AM 36.9811 -85.2800 354° North 510 587 34,000  Level Indianapolis Center
08:02AM 37.1197 -85.3125 349° North 490 564 34,000  Level Indianapolis Center
08:03AM 37.2517 -85.3544 346° North 486 559 34,000  Level Indianapolis Center
08:04AM 37.3811 -85.4075 342° North 487 560 34,000  Level Indianapolis Center
08:05AM 37.5147 -85.4511 345° North 492 566 34,000  Level Indianapolis Center
08:06AM 37.6486 -85.4950 345° North 495 570 34,000  Level Indianapolis Center
08:07AM 37.8106 -85.5283 351° North 503 579 34,000  Level Indianapolis Center
08:08AM 37.9436 -85.5539 351° North 515 593 34,000  Level Indianapolis Center
08:09AM 38.0847 -85.5764 353° North 513 590 34,000  Level Indianapolis Center
08:10AM 38.2258 -85.5986 353° North 511 588 34,000  Level Indianapolis Center
08:11AM 38.3722 -85.6000 360° North 526 605 34,000  Level Indianapolis Center
08:12AM 38.5197 -85.6044 359° North 526 605 34,000  Level Indianapolis Center
08:13AM 38.6647 -85.6042 360° North 526 605 34,000 -360 Level Indianapolis Center
08:14AM 38.8119 -85.6008 North 531 611 33,300 -780 Descending Indianapolis Center
08:15AM 38.9858 -85.6275 353° North 526 605 32,500 -840 Descending Indianapolis Center
08:16AM 39.1303 -85.6472 354° North 525 604 31,600 -900 Descending Indianapolis Center
08:17AM 39.2753 -85.6475 360° North 524 603 30,700 -840 Descending Indianapolis Center
08:18AM 39.4167 -85.6492 359° North 515 593 30,000 -780 Descending Indianapolis Center
08:19AM 39.5547 -85.6589 357° North 504 580 29,200 -1,080 Descending Indianapolis Center
08:20AM 39.6850 -85.6647 358° North 481 554 27,900 -1,260 Descending Indianapolis Center
08:21AM 39.8172 -85.6686 359° North 479 551 26,700 -900 Descending Indianapolis Center
08:22AM 39.9753 -85.6864 355° North 480 552 26,100 -360 Descending Indianapolis Center
08:23AM 40.1075 -85.6942 357° North 481 554 26,000 -60 Descending Indianapolis Center
08:24AM 40.2414 -85.6947 360° North 484 557 26,000 -60 Level Indianapolis Center
08:25AM 40.3744 -85.6836 North 484 557 25,900 -600 Descending Indianapolis Center
08:26AM 40.5056 -85.6831 360° North 476 548 24,900 -1,020 Descending Indianapolis Center
08:27AM 40.6214 -85.7397 340° North 459 528 23,900 -540 Descending Indianapolis Center
08:28AM 40.7242 -85.8350 325° Northwest 456 525 23,800 -660 Descending Indianapolis Center
08:29AM 40.8303 -85.9239 328° Northwest 455 524 22,600 -1,620 Descending Indianapolis Center
08:30AM 40.9558 -86.0128 332° Northwest 431 496 20,600 -1,380 Descending Indianapolis Center
08:32AM 41.0594 -86.0806 334° Northwest 420 483 19,800 -1,140 Descending Indianapolis Center
08:33AM 41.1547 -86.1417 334° Northwest 391 450 18,300 -1,380 Descending Indianapolis Center
08:34AM 41.2383 -86.2378 319° Northwest 402 463 17,000 -1,560 Descending Indianapolis Center
08:35AM 41.3114 -86.3397 314° West 389 448 15,200 -1,680 Descending Indianapolis Center
08:36AM 41.4106 -86.4678 316° Northwest 366 421 13,200 -900 Descending Chicago Center
08:37AM 41.4817 -86.5678 314° West 371 427 13,100 -120 Descending Chicago Center
08:38AM 41.5567 -86.6592 318° Northwest 367 422 13,000 -540 Descending Chicago Center
08:39AM 41.6275 -86.7483 317° Northwest 358 412 12,000 -480 Descending Chicago Center
08:40AM 41.7178 -86.8044 335° Northwest 364 419 12,100  Climbing Chicago Center
08:41AM 41.8086 -86.8589 336° Northwest 362 417 12,100 -60 Level Chicago Center
08:42AM 41.9156 -86.9211 337° Northwest 356 410 12,000 -240 Descending Chicago Center
08:43AM 41.9811 -86.9958 320° Northwest 337 388 11,700 -720 Descending Chicago Center
08:44AM 41.9781 -87.1042 268° West 291 335 10,600 -1,260 Descending Chicago Center
08:45AM 41.9831 -87.2050 274° West 272 313 9,200 -1,320 Descending Chicago Center
08:46AM 41.9819 -87.3061 269° West 273 314 8,000 -720 Descending Chicago Center
08:47AM 41.9814 -87.3969 270° West 249 287 7,800 -840 Descending Chicago Center
08:48AM 41.9814 -87.4831 270° West 234 269 6,400 -1,380 Descending Chicago Center
08:49AM 41.9836 -87.5883 272° West 236 272 5,000 -1,320 Descending Chicago Center
08:50AM 41.9828 -87.6703 269° West 226 260 3,700 -1,320 Descending Chicago Center